sensor_id;sensor_type;location;lat;lon;timestamp;P1;durP1;ratioP1;P2;durP2;ratioP2
25868;SDS011;13688;53.154;18.136;2023-09-18T00:02:21;12.53;;;9.00;;
25868;SDS011;13688;53.154;18.136;2023-09-18T00:07:44;20.48;;;10.05;;
25868;SDS011;13688;53.154;18.136;2023-09-18T00:13:07;10.15;;;8.88;;
25868;SDS011;13688;53.154;18.136;2023-09-18T00:18:29;14.63;;;9.55;;
25868;SDS011;13688;53.154;18.136;2023-09-18T00:23:52;14.23;;;11.08;;
25868;SDS011;13688;53.154;18.136;2023-09-18T00:29:15;14.58;;;11.55;;
25868;SDS011;13688;53.154;18.136;2023-09-18T00:34:38;16.23;;;11.28;;
25868;SDS011;13688;53.154;18.136;2023-09-18T00:40:01;14.23;;;10.10;;
25868;SDS011;13688;53.154;18.136;2023-09-18T00:45:25;14.93;;;9.95;;
25868;SDS011;13688;53.154;18.136;2023-09-18T00:50:52;15.35;;;9.83;;
25868;SDS011;13688;53.154;18.136;2023-09-18T00:56:15;17.00;;;11.15;;
25868;SDS011;13688;53.154;18.136;2023-09-18T01:01:38;13.50;;;10.25;;
25868;SDS011;13688;53.154;18.136;2023-09-18T01:07:01;12.65;;;10.48;;
25868;SDS011;13688;53.154;18.136;2023-09-18T01:12:30;15.05;;;10.70;;
25868;SDS011;13688;53.154;18.136;2023-09-18T01:18:00;13.58;;;10.15;;
25868;SDS011;13688;53.154;18.136;2023-09-18T01:23:22;14.63;;;10.55;;
25868;SDS011;13688;53.154;18.136;2023-09-18T01:28:45;18.40;;;10.97;;
25868;SDS011;13688;53.154;18.136;2023-09-18T01:34:08;14.20;;;11.28;;
25868;SDS011;13688;53.154;18.136;2023-09-18T01:39:33;13.48;;;10.25;;
25868;SDS011;13688;53.154;18.136;2023-09-18T01:45:00;17.12;;;11.30;;
25868;SDS011;13688;53.154;18.136;2023-09-18T01:50:23;14.80;;;10.53;;
25868;SDS011;13688;53.154;18.136;2023-09-18T01:55:48;13.08;;;10.53;;
25868;SDS011;13688;53.154;18.136;2023-09-18T02:01:11;12.53;;;9.68;;
25868;SDS011;13688;53.154;18.136;2023-09-18T02:06:34;15.58;;;10.63;;
25868;SDS011;13688;53.154;18.136;2023-09-18T02:11:58;13.45;;;10.72;;
25868;SDS011;13688;53.154;18.136;2023-09-18T02:17:21;11.87;;;10.13;;
25868;SDS011;13688;53.154;18.136;2023-09-18T02:22:44;13.25;;;10.20;;
25868;SDS011;13688;53.154;18.136;2023-09-18T02:28:08;12.73;;;10.38;;
25868;SDS011;13688;53.154;18.136;2023-09-18T02:33:30;17.48;;;10.98;;
25868;SDS011;13688;53.154;18.136;2023-09-18T02:38:56;21.33;;;11.53;;
25868;SDS011;13688;53.154;18.136;2023-09-18T02:44:19;16.07;;;11.33;;
25868;SDS011;13688;53.154;18.136;2023-09-18T02:49:42;18.02;;;11.65;;
25868;SDS011;13688;53.154;18.136;2023-09-18T02:55:05;17.12;;;11.57;;
25868;SDS011;13688;53.154;18.136;2023-09-18T03:00:32;16.52;;;11.80;;
25868;SDS011;13688;53.154;18.136;2023-09-18T03:05:59;14.93;;;11.68;;
25868;SDS011;13688;53.154;18.136;2023-09-18T03:11:19;15.50;;;11.40;;
25868;SDS011;13688;53.154;18.136;2023-09-18T03:16:42;16.48;;;11.80;;
25868;SDS011;13688;53.154;18.136;2023-09-18T03:22:05;15.85;;;12.10;;
25868;SDS011;13688;53.154;18.136;2023-09-18T03:27:27;19.17;;;12.05;;
25868;SDS011;13688;53.154;18.136;2023-09-18T03:32:50;13.90;;;12.10;;
25868;SDS011;13688;53.154;18.136;2023-09-18T03:38:13;15.90;;;11.85;;
25868;SDS011;13688;53.154;18.136;2023-09-18T03:43:38;15.72;;;11.78;;
25868;SDS011;13688;53.154;18.136;2023-09-18T03:49:00;17.27;;;11.90;;
25868;SDS011;13688;53.154;18.136;2023-09-18T03:54:23;19.85;;;12.98;;
25868;SDS011;13688;53.154;18.136;2023-09-18T03:59:45;17.12;;;12.10;;
25868;SDS011;13688;53.154;18.136;2023-09-18T04:05:08;18.57;;;12.90;;
25868;SDS011;13688;53.154;18.136;2023-09-18T04:10:31;18.57;;;12.70;;
25868;SDS011;13688;53.154;18.136;2023-09-18T04:15:53;17.55;;;12.93;;
25868;SDS011;13688;53.154;18.136;2023-09-18T04:21:17;16.67;;;12.53;;
25868;SDS011;13688;53.154;18.136;2023-09-18T04:26:40;17.40;;;12.75;;
25868;SDS011;13688;53.154;18.136;2023-09-18T04:32:03;24.40;;;13.03;;
25868;SDS011;13688;53.154;18.136;2023-09-18T04:37:27;17.17;;;12.53;;
25868;SDS011;13688;53.154;18.136;2023-09-18T04:42:53;18.77;;;12.90;;
25868;SDS011;13688;53.154;18.136;2023-09-18T04:48:16;20.15;;;13.32;;
25868;SDS011;13688;53.154;18.136;2023-09-18T04:53:39;16.20;;;13.75;;
25868;SDS011;13688;53.154;18.136;2023-09-18T04:59:01;17.98;;;13.65;;
25868;SDS011;13688;53.154;18.136;2023-09-18T05:04:24;16.32;;;12.60;;
25868;SDS011;13688;53.154;18.136;2023-09-18T05:09:47;16.48;;;13.00;;
25868;SDS011;13688;53.154;18.136;2023-09-18T05:15:10;18.67;;;12.93;;
25868;SDS011;13688;53.154;18.136;2023-09-18T05:20:44;21.20;;;12.93;;
25868;SDS011;13688;53.154;18.136;2023-09-18T05:26:08;19.67;;;14.57;;
25868;SDS011;13688;53.154;18.136;2023-09-18T05:31:32;18.02;;;13.22;;
25868;SDS011;13688;53.154;18.136;2023-09-18T05:36:55;20.23;;;14.23;;
25868;SDS011;13688;53.154;18.136;2023-09-18T05:42:19;24.00;;;13.28;;
25868;SDS011;13688;53.154;18.136;2023-09-18T05:47:42;18.15;;;13.75;;
25868;SDS011;13688;53.154;18.136;2023-09-18T05:53:08;25.90;;;15.63;;
25868;SDS011;13688;53.154;18.136;2023-09-18T05:58:54;22.43;;;13.77;;
25868;SDS011;13688;53.154;18.136;2023-09-18T06:04:18;47.03;;;17.90;;
25868;SDS011;13688;53.154;18.136;2023-09-18T06:09:42;23.77;;;13.93;;
25868;SDS011;13688;53.154;18.136;2023-09-18T06:15:09;24.52;;;14.20;;
25868;SDS011;13688;53.154;18.136;2023-09-18T06:20:29;19.00;;;13.57;;
25868;SDS011;13688;53.154;18.136;2023-09-18T06:25:52;20.75;;;13.93;;
25868;SDS011;13688;53.154;18.136;2023-09-18T06:31:16;25.20;;;13.72;;
25868;SDS011;13688;53.154;18.136;2023-09-18T06:36:38;24.83;;;13.70;;
25868;SDS011;13688;53.154;18.136;2023-09-18T06:42:01;16.03;;;12.73;;
25868;SDS011;13688;53.154;18.136;2023-09-18T06:47:24;17.60;;;12.57;;
25868;SDS011;13688;53.154;18.136;2023-09-18T06:52:48;18.17;;;12.05;;
25868;SDS011;13688;53.154;18.136;2023-09-18T06:58:10;18.75;;;12.40;;
25868;SDS011;13688;53.154;18.136;2023-09-18T07:03:33;15.15;;;11.55;;
25868;SDS011;13688;53.154;18.136;2023-09-18T07:09:00;19.32;;;11.40;;
25868;SDS011;13688;53.154;18.136;2023-09-18T07:14:23;19.50;;;11.18;;
25868;SDS011;13688;53.154;18.136;2023-09-18T07:19:46;16.05;;;11.18;;
25868;SDS011;13688;53.154;18.136;2023-09-18T07:25:19;16.83;;;11.90;;
25868;SDS011;13688;53.154;18.136;2023-09-18T07:30:43;16.95;;;11.68;;
25868;SDS011;13688;53.154;18.136;2023-09-18T07:36:06;30.00;;;11.00;;
25868;SDS011;13688;53.154;18.136;2023-09-18T07:41:30;20.77;;;10.40;;
25868;SDS011;13688;53.154;18.136;2023-09-18T07:46:53;13.17;;;9.30;;
25868;SDS011;13688;53.154;18.136;2023-09-18T07:52:16;30.67;;;13.17;;
25868;SDS011;13688;53.154;18.136;2023-09-18T07:57:39;14.45;;;9.23;;
25868;SDS011;13688;53.154;18.136;2023-09-18T08:03:03;9.10;;;7.70;;
25868;SDS011;13688;53.154;18.136;2023-09-18T08:08:26;10.50;;;8.28;;
25868;SDS011;13688;53.154;18.136;2023-09-18T08:13:48;13.05;;;9.40;;
25868;SDS011;13688;53.154;18.136;2023-09-18T08:19:14;12.55;;;9.50;;
25868;SDS011;13688;53.154;18.136;2023-09-18T08:24:36;13.53;;;9.28;;
25868;SDS011;13688;53.154;18.136;2023-09-18T08:29:59;12.58;;;8.10;;
25868;SDS011;13688;53.154;18.136;2023-09-18T08:35:24;10.60;;;7.92;;
25868;SDS011;13688;53.154;18.136;2023-09-18T08:40:48;9.28;;;6.72;;
25868;SDS011;13688;53.154;18.136;2023-09-18T08:46:13;9.60;;;6.95;;
25868;SDS011;13688;53.154;18.136;2023-09-18T08:51:37;14.60;;;7.42;;
25868;SDS011;13688;53.154;18.136;2023-09-18T08:57:02;12.15;;;7.42;;
25868;SDS011;13688;53.154;18.136;2023-09-18T09:02:24;8.83;;;7.25;;
25868;SDS011;13688;53.154;18.136;2023-09-18T09:07:48;11.00;;;7.20;;
25868;SDS011;13688;53.154;18.136;2023-09-18T09:13:11;22.20;;;7.78;;
25868;SDS011;13688;53.154;18.136;2023-09-18T09:18:46;11.53;;;6.17;;
25868;SDS011;13688;53.154;18.136;2023-09-18T09:24:05;23.47;;;5.92;;
25868;SDS011;13688;53.154;18.136;2023-09-18T09:29:28;15.18;;;5.83;;
25868;SDS011;13688;53.154;18.136;2023-09-18T09:34:52;15.78;;;6.08;;
25868;SDS011;13688;53.154;18.136;2023-09-18T09:40:18;8.10;;;5.50;;
25868;SDS011;13688;53.154;18.136;2023-09-18T09:45:41;9.93;;;5.67;;
25868;SDS011;13688;53.154;18.136;2023-09-18T09:51:08;15.53;;;6.30;;
25868;SDS011;13688;53.154;18.136;2023-09-18T09:56:44;23.80;;;6.30;;
25868;SDS011;13688;53.154;18.136;2023-09-18T10:02:06;10.00;;;5.65;;
25868;SDS011;13688;53.154;18.136;2023-09-18T10:07:30;16.93;;;6.00;;
25868;SDS011;13688;53.154;18.136;2023-09-18T10:12:54;6.83;;;4.92;;
25868;SDS011;13688;53.154;18.136;2023-09-18T10:18:34;6.50;;;4.53;;
25868;SDS011;13688;53.154;18.136;2023-09-18T10:29:35;13.27;;;4.90;;
25868;SDS011;13688;53.154;18.136;2023-09-18T10:34:59;5.42;;;4.75;;
25868;SDS011;13688;53.154;18.136;2023-09-18T10:40:24;7.22;;;4.70;;
25868;SDS011;13688;53.154;18.136;2023-09-18T10:45:50;9.15;;;5.40;;
25868;SDS011;13688;53.154;18.136;2023-09-18T10:51:14;7.35;;;6.00;;
25868;SDS011;13688;53.154;18.136;2023-09-18T10:56:38;7.83;;;5.22;;
25868;SDS011;13688;53.154;18.136;2023-09-18T11:02:02;12.98;;;5.37;;
25868;SDS011;13688;53.154;18.136;2023-09-18T11:07:29;11.48;;;5.72;;
25868;SDS011;13688;53.154;18.136;2023-09-18T11:12:51;11.55;;;6.92;;
25868;SDS011;13688;53.154;18.136;2023-09-18T11:18:17;9.05;;;6.65;;
25868;SDS011;13688;53.154;18.136;2023-09-18T11:23:44;7.60;;;6.75;;
25868;SDS011;13688;53.154;18.136;2023-09-18T11:29:27;12.33;;;7.00;;
25868;SDS011;13688;53.154;18.136;2023-09-18T11:35:05;7.87;;;7.03;;
25868;SDS011;13688;53.154;18.136;2023-09-18T11:40:29;15.60;;;7.28;;
25868;SDS011;13688;53.154;18.136;2023-09-18T11:45:54;10.32;;;7.45;;
25868;SDS011;13688;53.154;18.136;2023-09-18T11:51:24;9.00;;;6.70;;
25868;SDS011;13688;53.154;18.136;2023-09-18T11:56:44;13.20;;;6.03;;
25868;SDS011;13688;53.154;18.136;2023-09-18T12:02:13;12.98;;;6.53;;
25868;SDS011;13688;53.154;18.136;2023-09-18T12:07:46;7.40;;;4.90;;
25868;SDS011;13688;53.154;18.136;2023-09-18T12:13:10;6.05;;;4.47;;
25868;SDS011;13688;53.154;18.136;2023-09-18T12:18:35;6.50;;;3.87;;
25868;SDS011;13688;53.154;18.136;2023-09-18T12:24:03;6.05;;;3.70;;
25868;SDS011;13688;53.154;18.136;2023-09-18T12:34:48;7.10;;;3.80;;
25868;SDS011;13688;53.154;18.136;2023-09-18T12:40:23;9.50;;;3.75;;
25868;SDS011;13688;53.154;18.136;2023-09-18T12:45:48;4.87;;;3.58;;
25868;SDS011;13688;53.154;18.136;2023-09-18T12:51:12;6.58;;;5.22;;
25868;SDS011;13688;53.154;18.136;2023-09-18T13:01:57;7.23;;;4.80;;
25868;SDS011;13688;53.154;18.136;2023-09-18T13:07:23;5.90;;;4.50;;
25868;SDS011;13688;53.154;18.136;2023-09-18T13:12:56;7.85;;;4.55;;
25868;SDS011;13688;53.154;18.136;2023-09-18T13:18:21;5.70;;;4.50;;
25868;SDS011;13688;53.154;18.136;2023-09-18T13:23:48;5.37;;;4.42;;
25868;SDS011;13688;53.154;18.136;2023-09-18T13:29:16;13.58;;;8.90;;
25868;SDS011;13688;53.154;18.136;2023-09-18T13:34:43;8.25;;;4.67;;
25868;SDS011;13688;53.154;18.136;2023-09-18T13:40:06;8.15;;;4.33;;
25868;SDS011;13688;53.154;18.136;2023-09-18T13:45:30;13.58;;;5.12;;
25868;SDS011;13688;53.154;18.136;2023-09-18T13:51:04;5.70;;;4.23;;
25868;SDS011;13688;53.154;18.136;2023-09-18T13:56:40;5.67;;;4.55;;
25868;SDS011;13688;53.154;18.136;2023-09-18T14:02:03;4.73;;;4.30;;
25868;SDS011;13688;53.154;18.136;2023-09-18T14:07:38;5.95;;;4.33;;
25868;SDS011;13688;53.154;18.136;2023-09-18T14:13:04;5.92;;;4.55;;
25868;SDS011;13688;53.154;18.136;2023-09-18T14:18:27;7.75;;;4.97;;
25868;SDS011;13688;53.154;18.136;2023-09-18T14:23:50;9.65;;;4.95;;
25868;SDS011;13688;53.154;18.136;2023-09-18T14:29:14;7.90;;;5.80;;
25868;SDS011;13688;53.154;18.136;2023-09-18T14:34:42;7.40;;;5.70;;
25868;SDS011;13688;53.154;18.136;2023-09-18T14:40:10;7.97;;;5.60;;
25868;SDS011;13688;53.154;18.136;2023-09-18T14:45:34;8.35;;;5.60;;
25868;SDS011;13688;53.154;18.136;2023-09-18T14:51:14;11.33;;;6.67;;
25868;SDS011;13688;53.154;18.136;2023-09-18T14:56:39;7.37;;;5.78;;
25868;SDS011;13688;53.154;18.136;2023-09-18T15:02:05;8.85;;;6.12;;
25868;SDS011;13688;53.154;18.136;2023-09-18T15:07:41;7.57;;;6.40;;
25868;SDS011;13688;53.154;18.136;2023-09-18T15:13:05;9.10;;;6.70;;
25868;SDS011;13688;53.154;18.136;2023-09-18T15:18:29;7.58;;;6.67;;
25868;SDS011;13688;53.154;18.136;2023-09-18T15:23:55;13.38;;;8.05;;
25868;SDS011;13688;53.154;18.136;2023-09-18T15:29:19;10.15;;;7.35;;
25868;SDS011;13688;53.154;18.136;2023-09-18T15:34:42;9.08;;;7.47;;
25868;SDS011;13688;53.154;18.136;2023-09-18T15:40:06;9.03;;;7.60;;
25868;SDS011;13688;53.154;18.136;2023-09-18T15:45:35;14.45;;;7.85;;
25868;SDS011;13688;53.154;18.136;2023-09-18T15:51:04;10.50;;;8.93;;
25868;SDS011;13688;53.154;18.136;2023-09-18T15:56:27;11.83;;;8.70;;
25868;SDS011;13688;53.154;18.136;2023-09-18T16:01:51;15.15;;;8.30;;
25868;SDS011;13688;53.154;18.136;2023-09-18T16:07:14;10.38;;;7.53;;
25868;SDS011;13688;53.154;18.136;2023-09-18T16:12:38;10.18;;;8.20;;
25868;SDS011;13688;53.154;18.136;2023-09-18T16:18:06;16.20;;;8.33;;
25868;SDS011;13688;53.154;18.136;2023-09-18T16:23:29;11.83;;;8.35;;
25868;SDS011;13688;53.154;18.136;2023-09-18T16:28:52;10.43;;;8.35;;
25868;SDS011;13688;53.154;18.136;2023-09-18T16:34:18;13.00;;;8.10;;
25868;SDS011;13688;53.154;18.136;2023-09-18T16:39:41;13.10;;;8.60;;
25868;SDS011;13688;53.154;18.136;2023-09-18T16:45:03;11.67;;;8.57;;
25868;SDS011;13688;53.154;18.136;2023-09-18T16:50:26;19.48;;;13.85;;
25868;SDS011;13688;53.154;18.136;2023-09-18T16:55:49;14.87;;;9.33;;
25868;SDS011;13688;53.154;18.136;2023-09-18T17:01:12;14.07;;;9.45;;
25868;SDS011;13688;53.154;18.136;2023-09-18T17:06:36;14.40;;;9.80;;
25868;SDS011;13688;53.154;18.136;2023-09-18T17:11:58;15.15;;;10.28;;
25868;SDS011;13688;53.154;18.136;2023-09-18T17:17:22;19.50;;;9.93;;
25868;SDS011;13688;53.154;18.136;2023-09-18T17:22:46;16.25;;;10.40;;
25868;SDS011;13688;53.154;18.136;2023-09-18T17:28:09;16.32;;;9.50;;
25868;SDS011;13688;53.154;18.136;2023-09-18T17:33:33;12.73;;;10.50;;
25868;SDS011;13688;53.154;18.136;2023-09-18T17:38:56;15.80;;;10.88;;
25868;SDS011;13688;53.154;18.136;2023-09-18T17:44:19;14.80;;;10.45;;
25868;SDS011;13688;53.154;18.136;2023-09-18T17:49:42;16.75;;;10.88;;
25868;SDS011;13688;53.154;18.136;2023-09-18T17:55:05;15.18;;;10.78;;
25868;SDS011;13688;53.154;18.136;2023-09-18T18:00:28;15.00;;;11.18;;
25868;SDS011;13688;53.154;18.136;2023-09-18T18:05:51;12.82;;;11.48;;
25868;SDS011;13688;53.154;18.136;2023-09-18T18:11:17;16.30;;;13.03;;
25868;SDS011;13688;53.154;18.136;2023-09-18T18:16:40;19.60;;;11.88;;
25868;SDS011;13688;53.154;18.136;2023-09-18T18:22:03;13.85;;;11.60;;
25868;SDS011;13688;53.154;18.136;2023-09-18T18:27:26;19.60;;;12.07;;
25868;SDS011;13688;53.154;18.136;2023-09-18T18:32:51;19.37;;;11.57;;
25868;SDS011;13688;53.154;18.136;2023-09-18T18:38:14;27.77;;;19.12;;
25868;SDS011;13688;53.154;18.136;2023-09-18T18:43:37;17.87;;;12.75;;
25868;SDS011;13688;53.154;18.136;2023-09-18T18:49:01;16.25;;;12.35;;
25868;SDS011;13688;53.154;18.136;2023-09-18T18:54:23;21.55;;;13.18;;
25868;SDS011;13688;53.154;18.136;2023-09-18T18:59:47;17.12;;;13.50;;
25868;SDS011;13688;53.154;18.136;2023-09-18T19:05:21;30.50;;;21.50;;
25868;SDS011;13688;53.154;18.136;2023-09-18T19:10:47;19.05;;;13.30;;
25868;SDS011;13688;53.154;18.136;2023-09-18T19:16:12;18.30;;;12.90;;
25868;SDS011;13688;53.154;18.136;2023-09-18T19:21:36;25.93;;;13.17;;
25868;SDS011;13688;53.154;18.136;2023-09-18T19:27:00;22.37;;;13.22;;
25868;SDS011;13688;53.154;18.136;2023-09-18T19:32:22;16.43;;;13.37;;
25868;SDS011;13688;53.154;18.136;2023-09-18T19:37:47;22.77;;;13.75;;
25868;SDS011;13688;53.154;18.136;2023-09-18T19:43:12;24.93;;;13.77;;
25868;SDS011;13688;53.154;18.136;2023-09-18T19:48:36;42.37;;;30.77;;
25868;SDS011;13688;53.154;18.136;2023-09-18T19:53:59;20.15;;;16.23;;
25868;SDS011;13688;53.154;18.136;2023-09-18T19:59:24;27.55;;;14.10;;
25868;SDS011;13688;53.154;18.136;2023-09-18T20:04:50;20.08;;;14.95;;
25868;SDS011;13688;53.154;18.136;2023-09-18T20:10:13;26.20;;;14.65;;
25868;SDS011;13688;53.154;18.136;2023-09-18T20:15:37;20.88;;;15.58;;
25868;SDS011;13688;53.154;18.136;2023-09-18T20:21:02;20.05;;;14.85;;
25868;SDS011;13688;53.154;18.136;2023-09-18T20:26:26;16.77;;;14.78;;
25868;SDS011;13688;53.154;18.136;2023-09-18T20:31:52;21.97;;;14.13;;
25868;SDS011;13688;53.154;18.136;2023-09-18T20:37:17;26.42;;;14.47;;
25868;SDS011;13688;53.154;18.136;2023-09-18T20:42:42;21.07;;;15.40;;
25868;SDS011;13688;53.154;18.136;2023-09-18T20:48:07;20.00;;;15.43;;
25868;SDS011;13688;53.154;18.136;2023-09-18T20:53:31;18.67;;;14.87;;
25868;SDS011;13688;53.154;18.136;2023-09-18T20:58:56;17.87;;;15.05;;
25868;SDS011;13688;53.154;18.136;2023-09-18T21:04:20;20.43;;;14.78;;
25868;SDS011;13688;53.154;18.136;2023-09-18T21:09:46;24.07;;;15.80;;
25868;SDS011;13688;53.154;18.136;2023-09-18T21:15:09;18.67;;;16.50;;
25868;SDS011;13688;53.154;18.136;2023-09-18T21:20:33;17.82;;;15.95;;
25868;SDS011;13688;53.154;18.136;2023-09-18T21:25:56;22.98;;;16.25;;
25868;SDS011;13688;53.154;18.136;2023-09-18T21:31:20;19.62;;;16.07;;
25868;SDS011;13688;53.154;18.136;2023-09-18T21:36:45;20.30;;;16.30;;
25868;SDS011;13688;53.154;18.136;2023-09-18T21:42:10;22.47;;;16.50;;
25868;SDS011;13688;53.154;18.136;2023-09-18T21:47:35;25.27;;;16.32;;
25868;SDS011;13688;53.154;18.136;2023-09-18T21:52:59;24.40;;;16.12;;
25868;SDS011;13688;53.154;18.136;2023-09-18T21:58:24;22.48;;;16.30;;
25868;SDS011;13688;53.154;18.136;2023-09-18T22:03:47;21.40;;;16.47;;
25868;SDS011;13688;53.154;18.136;2023-09-18T22:09:13;22.40;;;17.00;;
25868;SDS011;13688;53.154;18.136;2023-09-18T22:14:37;20.08;;;16.05;;
25868;SDS011;13688;53.154;18.136;2023-09-18T22:20:02;20.48;;;17.32;;
25868;SDS011;13688;53.154;18.136;2023-09-18T22:25:26;21.30;;;16.57;;
25868;SDS011;13688;53.154;18.136;2023-09-18T22:30:50;21.30;;;17.00;;
25868;SDS011;13688;53.154;18.136;2023-09-18T22:36:19;19.48;;;15.95;;
25868;SDS011;13688;53.154;18.136;2023-09-18T22:58:53;25.08;;;17.73;;
25868;SDS011;13688;53.154;18.136;2023-09-18T23:04:16;20.50;;;16.62;;
25868;SDS011;13688;53.154;18.136;2023-09-18T23:09:40;23.85;;;17.02;;
25868;SDS011;13688;53.154;18.136;2023-09-18T23:15:09;21.42;;;17.70;;
25868;SDS011;13688;53.154;18.136;2023-09-18T23:20:31;22.25;;;17.05;;
25868;SDS011;13688;53.154;18.136;2023-09-18T23:25:54;21.55;;;16.75;;
25868;SDS011;13688;53.154;18.136;2023-09-18T23:31:20;20.63;;;17.30;;
25868;SDS011;13688;53.154;18.136;2023-09-18T23:36:47;23.00;;;18.62;;
25868;SDS011;13688;53.154;18.136;2023-09-18T23:42:12;23.20;;;17.70;;
25868;SDS011;13688;53.154;18.136;2023-09-18T23:47:37;27.22;;;19.30;;
25868;SDS011;13688;53.154;18.136;2023-09-18T23:53:02;23.07;;;18.10;;
25868;SDS011;13688;53.154;18.136;2023-09-18T23:58:28;25.72;;;18.77;;
